createdAt,value
2018-02-11T00:00:19.655Z,61.00
2018-02-11T00:02:47.122Z,60.90
2018-02-11T00:05:14.572Z,60.90
2018-02-11T00:07:42.040Z,61.60
2018-02-11T00:10:09.485Z,61.50
2018-02-11T00:12:36.955Z,61.30
2018-02-11T00:15:04.415Z,61.40
2018-02-11T00:17:31.883Z,61.30
2018-02-11T00:19:59.332Z,61.40
2018-02-11T00:22:26.792Z,61.30
2018-02-11T00:24:54.267Z,60.80
2018-02-11T00:27:21.736Z,60.80
2018-02-11T00:29:49.203Z,61.20
2018-02-11T00:32:16.852Z,61.30
2018-02-11T00:34:44.328Z,61.50
2018-02-11T00:37:16.667Z,61.00
2018-02-11T00:39:44.183Z,60.40
2018-02-11T00:42:12.428Z,60.70
2018-02-11T00:44:39.996Z,60.70
2018-02-11T00:47:07.449Z,60.80
2018-02-11T00:49:34.924Z,61.20
2018-02-11T00:52:03.150Z,60.20
2018-02-11T00:54:30.622Z,60.20
2018-02-11T00:56:58.070Z,60.70
2018-02-11T00:59:25.536Z,61.20
2018-02-11T01:01:52.989Z,61.50
2018-02-11T01:04:20.447Z,61.40
2018-02-11T01:06:47.907Z,61.00
2018-02-11T01:09:15.372Z,60.00
2018-02-11T01:11:42.819Z,60.40
2018-02-11T01:14:10.283Z,60.10
2018-02-11T01:16:37.736Z,59.80
2018-02-11T01:19:05.201Z,60.10
2018-02-11T01:21:32.653Z,60.20
2018-02-11T01:24:00.108Z,60.90
2018-02-11T01:26:27.562Z,59.90
2018-02-11T01:28:55.027Z,60.00
2018-02-11T01:31:22.478Z,60.00
2018-02-11T01:33:49.949Z,60.10
2018-02-11T01:36:17.404Z,60.10
2018-02-11T01:38:44.867Z,60.00
2018-02-11T01:41:12.328Z,59.60
2018-02-11T01:43:39.790Z,59.80
2018-02-11T01:46:07.248Z,60.40
2018-02-11T01:48:34.697Z,60.50
2018-02-11T01:51:02.160Z,60.60
2018-02-11T01:53:29.612Z,59.50
2018-02-11T01:55:57.071Z,59.80
2018-02-11T01:58:24.527Z,58.80
2018-02-11T02:00:52.756Z,58.10
2018-02-11T02:03:20.215Z,58.10
2018-02-11T02:05:47.675Z,58.30
2018-02-11T02:08:15.131Z,57.80
2018-02-11T02:10:42.592Z,57.70
2018-02-11T02:13:10.043Z,58.20
2018-02-11T02:15:37.510Z,58.40
2018-02-11T02:18:04.965Z,58.00
2018-02-11T02:20:32.429Z,58.70
2018-02-11T02:22:59.876Z,58.80
2018-02-11T02:25:27.335Z,58.60
2018-02-11T02:27:54.801Z,57.60
2018-02-11T02:30:22.260Z,57.60
2018-02-11T02:32:49.716Z,57.80
2018-02-11T02:35:17.205Z,57.10
2018-02-11T02:37:46.162Z,56.40
2018-02-11T02:40:13.636Z,56.40
2018-02-11T02:42:41.093Z,56.40
2018-02-11T02:45:08.548Z,56.70
2018-02-11T02:47:36.003Z,57.00
2018-02-11T02:50:03.467Z,56.20
2018-02-11T02:52:30.921Z,55.60
2018-02-11T02:54:58.384Z,55.10
2018-02-11T02:57:25.899Z,55.20
2018-02-11T02:59:53.295Z,55.40
2018-02-11T03:02:20.781Z,55.80
2018-02-11T03:04:48.228Z,55.60
2018-02-11T03:07:17.202Z,56.00
2018-02-11T03:09:44.652Z,56.00
2018-02-11T03:12:12.115Z,55.40
2018-02-11T03:14:39.568Z,55.10
2018-02-11T03:17:07.031Z,55.50
2018-02-11T03:19:34.484Z,55.60
2018-02-11T03:22:01.944Z,55.40
2018-02-11T03:24:29.400Z,55.60
2018-02-11T03:26:56.874Z,55.10
2018-02-11T03:29:24.314Z,55.80
2018-02-11T03:31:51.772Z,55.50
2018-02-11T03:34:19.228Z,55.10
2018-02-11T03:36:46.695Z,54.50
2018-02-11T03:39:14.172Z,54.80
2018-02-11T03:41:41.630Z,54.40
2018-02-11T03:44:09.091Z,53.40
2018-02-11T03:46:36.547Z,53.60
2018-02-11T03:49:03.991Z,54.50
2018-02-11T03:51:31.484Z,55.20
2018-02-11T03:53:59.705Z,54.70
2018-02-11T03:56:27.151Z,54.70
2018-02-11T03:58:54.611Z,53.40
2018-02-11T04:01:22.071Z,54.00
2018-02-11T04:03:49.531Z,53.40
2018-02-11T04:06:16.989Z,52.30
2018-02-11T04:08:44.448Z,52.20
2018-02-11T04:11:11.899Z,51.50
2018-02-11T04:13:39.364Z,51.00
2018-02-11T04:16:06.875Z,51.60
2018-02-11T04:18:34.301Z,50.60
2018-02-11T04:21:01.815Z,51.80
2018-02-11T04:23:29.275Z,51.30
2018-02-11T04:25:56.782Z,50.20
2018-02-11T04:28:25.757Z,50.70
2018-02-11T04:30:53.204Z,50.70
2018-02-11T04:33:20.685Z,49.80
2018-02-11T04:35:48.136Z,50.50
2018-02-11T04:38:15.604Z,50.60
2018-02-11T04:40:43.056Z,50.80
2018-02-11T04:43:12.023Z,50.70
2018-02-11T04:45:39.487Z,50.70
2018-02-11T04:48:06.943Z,51.50
2018-02-11T04:50:34.393Z,51.90
2018-02-11T04:53:01.848Z,51.70
2018-02-11T04:55:29.298Z,52.10
2018-02-11T04:57:56.760Z,51.80
2018-02-11T05:00:24.209Z,52.20
2018-02-11T05:02:51.681Z,52.00
2018-02-11T05:05:19.133Z,52.20
2018-02-11T05:07:46.592Z,52.60
2018-02-11T05:10:14.044Z,52.40
2018-02-11T05:12:41.495Z,51.90
2018-02-11T05:15:08.955Z,52.00
2018-02-11T05:17:36.411Z,53.20
2018-02-11T05:22:37.691Z,51.90
2018-02-11T05:25:05.155Z,51.90
2018-02-11T05:27:32.612Z,53.00
2018-02-11T05:30:00.070Z,51.90
2018-02-11T05:32:27.521Z,52.80
2018-02-11T05:34:54.975Z,52.30
2018-02-11T05:37:22.425Z,51.70
2018-02-11T05:39:49.881Z,51.10
2018-02-11T05:42:17.336Z,50.80
2018-02-11T05:44:44.799Z,50.90
2018-02-11T05:47:12.253Z,50.50
2018-02-11T05:49:39.708Z,51.20
2018-02-11T05:52:07.217Z,49.80
2018-02-11T05:54:34.679Z,49.10
2018-02-11T05:57:02.899Z,50.20
2018-02-11T05:59:30.360Z,50.10
2018-02-11T06:01:57.812Z,50.60
2018-02-11T06:04:25.270Z,51.10
2018-02-11T06:06:52.766Z,51.10
2018-02-11T06:09:20.220Z,51.00
2018-02-11T06:11:47.675Z,51.20
2018-02-11T06:14:16.651Z,50.40
2018-02-11T06:16:44.114Z,50.40
2018-02-11T06:19:11.575Z,49.60
2018-02-11T06:21:39.044Z,48.90
2018-02-11T06:24:08.015Z,48.90
2018-02-11T06:26:44.232Z,48.90
2018-02-11T06:29:12.453Z,48.40
2018-02-11T06:31:39.901Z,48.30
2018-02-11T06:34:07.360Z,47.90
2018-02-11T06:36:34.799Z,48.20
2018-02-11T06:39:02.260Z,48.90
2018-02-11T06:41:29.730Z,48.70
2018-02-11T06:43:57.186Z,49.60
2018-02-11T06:46:24.657Z,49.20
2018-02-11T06:48:52.102Z,48.60
2018-02-11T06:51:19.555Z,48.80
2018-02-11T06:53:47.013Z,49.10
2018-02-11T06:56:14.472Z,49.20
2018-02-11T06:58:41.926Z,50.00
2018-02-11T07:01:09.382Z,50.10
2018-02-11T07:03:36.855Z,48.80
2018-02-11T07:06:04.316Z,49.80
2018-02-11T07:08:31.765Z,49.00
2018-02-11T07:10:59.229Z,48.50
2018-02-11T07:13:26.690Z,47.70
2018-02-11T07:15:54.151Z,47.20
2018-02-11T07:18:21.610Z,47.50
2018-02-11T07:20:49.079Z,46.50
2018-02-11T07:23:16.527Z,46.60
2018-02-11T07:25:43.995Z,47.00
2018-02-11T07:28:11.447Z,46.40
2018-02-11T07:30:38.911Z,46.70
2018-02-11T07:33:06.366Z,48.30
2018-02-11T07:35:34.220Z,47.70
2018-02-11T07:38:01.683Z,47.00
2018-02-11T07:40:29.140Z,47.60
2018-02-11T07:42:56.594Z,48.10
2018-02-11T07:45:24.059Z,49.10
2018-02-11T07:47:51.511Z,49.30
2018-02-11T07:50:18.991Z,48.70
2018-02-11T07:52:47.213Z,49.90
2018-02-11T07:55:14.657Z,49.80
2018-02-11T07:57:42.125Z,50.10
2018-02-11T08:00:09.593Z,50.40
2018-02-11T08:02:37.062Z,51.20
2018-02-11T08:05:04.509Z,51.10
2018-02-11T08:07:31.964Z,50.70
2018-02-11T08:09:59.429Z,51.10
2018-02-11T08:12:26.919Z,51.50
2018-02-11T08:14:54.365Z,53.30
2018-02-11T08:17:21.829Z,52.80
2018-02-11T08:19:49.286Z,52.40
2018-02-11T08:22:16.772Z,52.40
2018-02-11T08:24:44.990Z,52.00
2018-02-11T08:27:12.461Z,51.90
2018-02-11T08:29:40.987Z,51.90
2018-02-11T08:32:09.234Z,51.60
2018-02-11T08:34:36.742Z,51.50
2018-02-11T08:37:04.253Z,52.20
2018-02-11T08:39:31.716Z,52.10
2018-02-11T08:41:59.217Z,53.00
2018-02-11T08:44:26.684Z,52.60
2018-02-11T08:46:54.153Z,53.30
2018-02-11T08:49:21.616Z,52.90
2018-02-11T08:51:49.167Z,54.60
2018-02-11T08:54:16.645Z,56.40
2018-02-11T08:56:44.192Z,58.10
2018-02-11T08:59:11.715Z,59.70
2018-02-11T09:01:39.973Z,60.80
2018-02-11T09:04:08.241Z,62.00
2018-02-11T09:06:35.752Z,61.90
2018-02-11T09:09:03.245Z,61.90
2018-02-11T09:11:30.757Z,64.70
2018-02-11T09:13:58.341Z,66.10
2018-02-11T09:16:25.902Z,65.60
2018-02-11T09:18:53.393Z,66.10
2018-02-11T09:21:20.881Z,64.80
2018-02-11T09:23:48.438Z,66.50
2018-02-11T09:26:15.944Z,67.00
2018-02-11T09:28:43.428Z,66.00
2018-02-11T09:31:10.935Z,64.50
2018-02-11T09:33:38.453Z,64.40
2018-02-11T09:36:06.681Z,63.90
2018-02-11T09:38:35.013Z,64.00
2018-02-11T09:41:02.556Z,63.90
2018-02-11T09:43:30.878Z,67.00
2018-02-11T09:45:58.376Z,66.10
2018-02-11T09:48:25.922Z,65.30
2018-02-11T09:50:53.420Z,66.40
2018-02-11T09:53:21.731Z,67.10
2018-02-11T09:55:49.256Z,67.10
2018-02-11T09:58:17.543Z,64.10
2018-02-11T10:00:45.065Z,64.10
2018-02-11T10:03:12.573Z,62.50
2018-02-11T10:05:40.052Z,62.00
2018-02-11T10:08:07.534Z,64.30
2018-02-11T10:10:35.082Z,66.70
2018-02-11T10:13:02.544Z,65.70
2018-02-11T10:15:30.032Z,63.80
2018-02-11T10:17:57.496Z,65.00
2018-02-11T10:20:25.846Z,62.40
2018-02-11T10:22:53.316Z,62.20
2018-02-11T10:25:20.841Z,61.00
2018-02-11T10:27:48.346Z,62.00
2018-02-11T10:30:16.592Z,62.40
2018-02-11T10:32:44.072Z,62.40
2018-02-11T10:35:11.555Z,63.70
2018-02-11T10:37:39.025Z,62.80
2018-02-11T10:40:06.521Z,62.80
2018-02-11T10:42:33.996Z,62.90
2018-02-11T10:45:01.487Z,63.30
2018-02-11T10:47:28.964Z,63.20
2018-02-11T10:49:56.448Z,63.50
2018-02-11T10:52:23.921Z,63.90
2018-02-11T10:54:51.389Z,63.30
2018-02-11T10:57:18.843Z,63.10
2018-02-11T10:59:46.342Z,63.60
2018-02-11T11:02:13.823Z,64.10
2018-02-11T11:04:41.292Z,63.70
2018-02-11T11:07:08.775Z,64.10
2018-02-11T11:09:37.032Z,64.30
2018-02-11T11:12:04.530Z,64.30
2018-02-11T11:14:32.012Z,64.20
2018-02-11T11:16:59.481Z,64.40
2018-02-11T11:19:26.973Z,64.60
2018-02-11T11:21:54.522Z,64.50
2018-02-11T11:24:22.000Z,65.20
2018-02-11T11:26:49.489Z,64.60
2018-02-11T11:29:17.717Z,64.50
2018-02-11T11:31:45.204Z,64.40
2018-02-11T11:34:13.453Z,64.50
2018-02-11T11:36:40.938Z,64.30
2018-02-11T11:39:09.199Z,66.10
2018-02-11T11:41:36.699Z,65.20
2018-02-11T11:44:04.202Z,65.30
2018-02-11T11:46:31.692Z,66.20
2018-02-11T11:48:59.932Z,66.20
2018-02-11T11:51:27.420Z,66.10
2018-02-11T11:53:54.913Z,67.10
2018-02-11T11:56:22.395Z,67.10
2018-02-11T11:58:49.874Z,67.50
2018-02-11T12:01:17.369Z,67.20
2018-02-11T12:03:45.632Z,67.90
2018-02-11T12:06:13.931Z,68.50
2018-02-11T12:08:41.436Z,68.50
2018-02-11T12:11:08.929Z,68.20
2018-02-11T12:13:37.216Z,68.60
2018-02-11T12:16:05.480Z,68.00
2018-02-11T12:18:33.752Z,68.00
2018-02-11T12:21:02.016Z,68.50
2018-02-11T12:23:29.508Z,68.50
2018-02-11T12:25:56.989Z,68.40
2018-02-11T12:28:24.480Z,68.70
2018-02-11T12:30:51.979Z,69.20
2018-02-11T12:33:20.220Z,68.40
2018-02-11T12:35:47.737Z,68.30
2018-02-11T12:38:15.249Z,69.10
2018-02-11T12:40:42.760Z,68.30
2018-02-11T12:43:10.263Z,68.30
2018-02-11T12:45:37.738Z,68.80
2018-02-11T12:48:05.988Z,68.70
2018-02-11T12:50:33.459Z,68.70
2018-02-11T12:53:00.973Z,68.40
2018-02-11T12:55:28.453Z,68.90
2018-02-11T12:57:55.941Z,69.10
2018-02-11T13:00:24.186Z,68.40
2018-02-11T13:02:51.683Z,68.40
2018-02-11T13:05:19.946Z,69.90
2018-02-11T13:07:48.220Z,68.50
2018-02-11T13:10:15.695Z,68.40
2018-02-11T13:12:43.950Z,68.20
2018-02-11T13:15:11.419Z,68.10
2018-02-11T13:17:39.665Z,68.40
2018-02-11T13:20:07.140Z,68.30
2018-02-11T13:22:34.652Z,67.70
2018-02-11T13:25:02.123Z,67.40
2018-02-11T13:27:29.600Z,67.80
2018-02-11T13:29:57.079Z,66.90
2018-02-11T13:32:25.346Z,68.20
2018-02-11T13:34:52.823Z,67.40
2018-02-11T13:37:20.316Z,67.80
2018-02-11T13:39:47.797Z,67.80
2018-02-11T13:42:15.279Z,67.80
2018-02-11T13:44:44.368Z,68.60
2018-02-11T13:47:11.870Z,68.60
2018-02-11T13:49:39.359Z,68.60
2018-02-11T13:52:06.857Z,68.90
2018-02-11T13:54:34.354Z,69.10
2018-02-11T13:57:01.841Z,70.50
2018-02-11T13:59:29.312Z,69.90
2018-02-11T14:01:56.784Z,69.90
2018-02-11T14:04:24.264Z,70.20
2018-02-11T14:06:51.756Z,72.30
2018-02-11T14:09:19.245Z,71.30
2018-02-11T14:11:46.717Z,70.60
2018-02-11T14:14:14.308Z,72.10
2018-02-11T14:16:41.814Z,72.70
2018-02-11T14:19:09.304Z,72.50
2018-02-11T14:21:37.561Z,71.70
2018-02-11T14:24:05.320Z,72.20
2018-02-11T14:26:32.810Z,72.60
2018-02-11T14:29:01.082Z,72.10
2018-02-11T14:31:29.374Z,72.40
2018-02-11T14:33:56.938Z,72.40
2018-02-11T14:36:24.465Z,72.20
2018-02-11T14:38:51.984Z,71.90
2018-02-11T14:41:19.522Z,71.70
2018-02-11T14:43:47.075Z,71.70
2018-02-11T14:46:14.594Z,72.20
2018-02-11T14:48:42.142Z,72.70
2018-02-11T14:51:09.662Z,71.60
2018-02-11T14:53:37.204Z,71.90
2018-02-11T14:56:04.749Z,71.80
2018-02-11T14:58:33.067Z,72.50
2018-02-11T15:01:00.626Z,72.50
2018-02-11T15:03:28.146Z,71.80
2018-02-11T15:05:56.566Z,71.70
2018-02-11T15:08:24.193Z,71.70
2018-02-11T15:10:51.789Z,71.90
2018-02-11T15:13:19.320Z,72.60
2018-02-11T15:15:47.643Z,71.70
2018-02-11T15:18:15.182Z,71.70
2018-02-11T15:20:42.753Z,71.80
2018-02-11T15:23:10.303Z,72.10
2018-02-11T15:25:37.818Z,73.30
2018-02-11T15:28:06.151Z,72.10
2018-02-11T15:30:33.728Z,71.90
2018-02-11T15:33:01.263Z,72.10
2018-02-11T15:35:28.786Z,72.50
2018-02-11T15:37:56.327Z,72.80
2018-02-11T15:40:23.892Z,72.30
2018-02-11T15:42:52.207Z,72.10
2018-02-11T15:45:19.751Z,72.00
2018-02-11T15:47:47.301Z,71.70
2018-02-11T15:52:49.447Z,72.00
2018-02-11T15:55:16.987Z,72.90
2018-02-11T15:57:44.521Z,73.80
2018-02-11T17:16:09.149Z,74.60
2018-02-11T17:18:36.702Z,74.30
2018-02-11T17:21:04.365Z,74.80
2018-02-11T17:23:31.909Z,74.20
2018-02-11T17:25:59.422Z,73.90
2018-02-11T17:28:26.931Z,74.10
2018-02-11T17:30:54.465Z,74.30
2018-02-11T17:33:22.012Z,74.20
2018-02-11T17:35:50.302Z,74.80
2018-02-11T17:38:18.558Z,73.70
2018-02-11T17:40:46.084Z,73.70
2018-02-11T17:43:13.641Z,73.90
2018-02-11T17:45:41.214Z,73.80
2018-02-11T17:48:08.762Z,74.30
2018-02-11T17:50:36.256Z,73.60
2018-02-11T17:53:04.573Z,73.50
2018-02-11T17:55:32.092Z,73.40
2018-02-11T17:57:59.601Z,73.30
2018-02-11T18:00:27.113Z,73.90
2018-02-11T18:02:54.577Z,74.20
2018-02-11T18:05:22.792Z,74.80
2018-02-11T18:07:50.255Z,74.70
2018-02-11T18:10:18.832Z,74.40
2018-02-11T18:12:46.503Z,74.30
2018-02-11T18:15:13.992Z,74.40
2018-02-11T18:17:41.791Z,74.00
2018-02-11T18:20:10.100Z,74.30
2018-02-11T18:22:37.669Z,74.30
2018-02-11T18:25:05.200Z,74.40
2018-02-11T18:27:32.717Z,74.50
2018-02-11T18:30:00.276Z,74.30
2018-02-11T18:32:27.901Z,74.30
2018-02-11T18:34:55.610Z,74.20
2018-02-11T18:37:23.188Z,74.50
2018-02-11T18:39:50.754Z,74.40
2018-02-11T18:42:18.302Z,74.60
2018-02-11T18:44:46.598Z,74.80
2018-02-11T18:47:14.142Z,74.80
2018-02-11T18:49:42.441Z,74.60
2018-02-11T18:52:09.997Z,74.60
2018-02-11T18:54:37.521Z,74.60
2018-02-11T18:57:05.829Z,74.70
2018-02-11T18:59:33.317Z,74.60
2018-02-11T19:02:00.881Z,74.60
2018-02-11T19:04:28.397Z,74.10
2018-02-11T19:06:56.657Z,74.60
2018-02-11T19:09:24.921Z,74.40
2018-02-11T19:11:52.419Z,74.20
2018-02-11T19:14:19.956Z,74.10
2018-02-11T19:16:48.216Z,74.30
2018-02-11T19:19:15.727Z,74.30
2018-02-11T19:21:43.207Z,73.80
2018-02-11T19:24:10.701Z,74.60
2018-02-11T19:26:38.996Z,74.50
2018-02-11T19:29:07.259Z,74.00
2018-02-11T19:31:35.525Z,74.00
2018-02-11T19:34:03.017Z,73.80
2018-02-11T19:36:30.513Z,73.60
2018-02-11T19:38:58.039Z,73.60
2018-02-11T19:41:25.549Z,73.60
2018-02-11T19:43:53.045Z,73.90
2018-02-11T19:46:20.538Z,73.70
2018-02-11T19:48:48.030Z,73.70
2018-02-11T19:51:15.517Z,74.30
2018-02-11T19:53:43.021Z,74.30
2018-02-11T19:56:10.548Z,74.00
2018-02-11T19:58:38.051Z,74.00
2018-02-11T20:01:05.613Z,74.10
2018-02-11T20:03:33.115Z,73.40
2018-02-11T20:06:00.628Z,73.30
2018-02-11T20:08:28.122Z,73.40
2018-02-11T20:10:55.620Z,73.90
2018-02-11T20:13:23.110Z,73.10
2018-02-11T20:15:50.626Z,72.90
2018-02-11T20:18:18.138Z,73.00
2018-02-11T20:20:46.420Z,73.60
2018-02-11T20:23:14.721Z,73.80
2018-02-11T20:25:42.257Z,73.70
2018-02-11T20:28:10.527Z,74.00
2018-02-11T20:30:38.870Z,73.50
2018-02-11T20:33:06.396Z,74.10
2018-02-11T20:35:33.903Z,73.40
2018-02-11T20:38:01.456Z,73.60
2018-02-11T20:40:28.980Z,73.60
2018-02-11T20:42:56.521Z,73.00
2018-02-11T20:45:24.017Z,73.10
2018-02-11T20:47:51.551Z,73.00
2018-02-11T20:50:19.085Z,72.50
2018-02-11T20:52:47.398Z,72.60
2018-02-11T20:55:14.914Z,72.60
2018-02-11T20:57:43.243Z,72.60
2018-02-11T21:00:10.841Z,72.50
2018-02-11T21:02:39.145Z,72.40
2018-02-11T21:05:06.684Z,72.30
2018-02-11T21:07:34.219Z,71.90
2018-02-11T21:10:01.767Z,71.50
2018-02-11T21:12:29.309Z,71.10
2018-02-11T21:14:56.821Z,70.40
2018-02-11T21:17:24.433Z,70.00
2018-02-11T21:19:51.954Z,70.00
2018-02-11T21:22:19.555Z,69.80
2018-02-11T21:24:47.031Z,70.10
2018-02-11T21:27:14.582Z,70.60
2018-02-11T21:29:42.086Z,70.70
2018-02-11T21:32:10.338Z,69.20
2018-02-11T21:34:37.887Z,69.10
2018-02-11T21:37:05.446Z,68.30
2018-02-11T21:39:32.969Z,67.70
2018-02-11T21:42:00.496Z,66.80
2018-02-11T21:44:28.048Z,66.70
2018-02-11T21:46:56.336Z,67.10
2018-02-11T21:49:24.707Z,67.30
2018-02-11T21:51:53.024Z,67.20
2018-02-11T21:54:20.579Z,67.10
2018-02-11T21:56:48.090Z,67.30
2018-02-11T21:59:15.710Z,67.50
2018-02-11T22:01:43.247Z,67.90
2018-02-11T22:04:10.809Z,65.90
2018-02-11T22:06:38.353Z,65.00
2018-02-11T22:09:05.936Z,65.00
2018-02-11T22:11:33.505Z,65.00
2018-02-11T22:14:01.064Z,65.40
2018-02-11T22:16:28.646Z,65.90
2018-02-11T22:18:56.163Z,66.10
2018-02-11T22:21:23.689Z,67.00
2018-02-11T22:23:51.261Z,67.30
2018-02-11T22:26:19.636Z,67.20
2018-02-11T22:28:47.926Z,67.00
2018-02-11T22:31:16.206Z,67.40
2018-02-11T22:33:43.727Z,67.40
2018-02-11T22:36:11.267Z,67.60
2018-02-11T22:38:38.813Z,68.00
2018-02-11T22:41:06.337Z,68.90
2018-02-11T22:43:33.967Z,69.40
2018-02-11T22:46:01.481Z,69.60
2018-02-11T22:48:29.021Z,69.50
2018-02-11T22:50:57.375Z,69.20
2018-02-11T22:53:25.694Z,69.00
2018-02-11T22:55:53.230Z,69.00
2018-02-11T22:58:20.744Z,69.00
2018-02-11T23:00:48.267Z,68.20
2018-02-11T23:03:15.777Z,68.30
2018-02-11T23:05:44.082Z,68.00
2018-02-11T23:08:12.382Z,68.00
2018-02-11T23:13:13.885Z,68.20
2018-02-11T23:15:42.247Z,68.00
2018-02-11T23:18:09.811Z,68.00
2018-02-11T23:20:37.389Z,68.10
2018-02-11T23:23:04.940Z,68.10
2018-02-11T23:25:32.508Z,68.70
2018-02-11T23:28:00.032Z,69.30
2018-02-11T23:30:27.583Z,69.20
2018-02-11T23:32:55.118Z,69.40
2018-02-11T23:35:23.427Z,70.20
2018-02-11T23:37:50.950Z,70.10
2018-02-11T23:40:19.264Z,71.60
2018-02-11T23:42:46.793Z,71.50
2018-02-11T23:45:15.106Z,73.20
2018-02-11T23:47:42.666Z,73.10
2018-02-11T23:50:10.204Z,74.20
2018-02-11T23:52:37.722Z,73.00
2018-02-11T23:55:05.245Z,73.80
2018-02-11T23:57:32.846Z,74.40
